createdAt,value
2022-08-19T19:55:36.639Z,26.00
2022-08-19T19:58:06.933Z,25.50
2022-08-19T20:00:35.116Z,25.50
2022-08-19T20:03:03.589Z,25.60
2022-08-19T20:05:31.680Z,25.60
2022-08-19T20:08:16.999Z,25.60
2022-08-19T20:10:48.516Z,25.70
2022-08-19T20:13:16.639Z,25.70
2022-08-19T20:15:44.757Z,25.80
2022-08-19T20:18:14.703Z,25.70
2022-08-19T20:20:43.127Z,25.70
2022-08-19T20:23:11.226Z,25.60
2022-08-19T20:25:40.458Z,25.50
2022-08-19T20:28:12.322Z,25.50
2022-08-19T20:30:43.769Z,25.40
2022-08-19T20:33:14.849Z,25.40
2022-08-19T20:35:44.729Z,25.30
2022-08-19T20:38:13.067Z,25.20
2022-08-19T20:40:41.377Z,25.20
2022-08-19T20:43:13.251Z,25.10
2022-08-19T20:45:41.648Z,25.10
2022-08-19T20:48:12.370Z,25.10
2022-08-19T20:50:40.972Z,25.00
2022-08-19T20:53:14.175Z,25.00
2022-08-19T20:55:45.337Z,25.00
2022-08-19T20:58:15.186Z,25.00
2022-08-19T21:00:48.238Z,25.00
2022-08-19T21:03:19.241Z,24.90
2022-08-19T21:05:47.521Z,24.80
2022-08-19T21:08:18.208Z,24.80
2022-08-19T21:10:46.884Z,24.60
2022-08-19T21:13:16.884Z,24.60
2022-08-19T21:15:45.549Z,24.40
2022-08-19T21:18:15.440Z,24.40
2022-08-19T21:20:44.253Z,24.40
2022-08-19T21:23:14.762Z,24.40
2022-08-19T21:25:43.587Z,24.30
2022-08-19T21:28:29.949Z,24.20
2022-08-19T21:31:05.512Z,24.20
2022-08-19T21:33:33.656Z,24.10
2022-08-19T21:36:01.649Z,24.20
2022-08-19T21:38:30.252Z,24.20
2022-08-19T21:40:58.605Z,24.10
2022-08-19T21:43:28.287Z,24.10
2022-08-19T21:45:56.400Z,24.00
2022-08-19T21:48:24.478Z,24.00
2022-08-19T21:50:52.468Z,24.00
2022-08-19T21:53:22.852Z,24.00
2022-08-19T21:55:53.803Z,24.00
2022-08-19T21:58:28.367Z,23.90
2022-08-19T22:01:01.454Z,23.80
2022-08-19T22:03:32.483Z,23.80
2022-08-19T22:06:00.500Z,23.70
2022-08-19T22:08:28.638Z,23.60
2022-08-19T22:10:59.060Z,23.50
2022-08-19T22:13:28.464Z,23.40
2022-08-19T22:15:56.562Z,23.30
2022-08-19T22:18:26.892Z,23.20
2022-08-19T22:20:54.836Z,23.10
2022-08-19T22:23:22.880Z,23.10
2022-08-19T22:25:50.856Z,23.10
2022-08-19T22:28:27.916Z,23.00
2022-08-19T22:30:56.897Z,22.90
2022-08-19T22:33:27.690Z,22.90
2022-08-19T22:35:55.759Z,22.80
2022-08-19T22:38:24.436Z,22.80
2022-08-19T22:40:54.148Z,22.70
2022-08-19T22:43:24.537Z,22.60
2022-08-19T22:45:56.251Z,22.50
2022-08-19T22:48:28.117Z,22.50
2022-08-19T22:51:14.551Z,22.40
2022-08-19T22:53:44.832Z,22.40
2022-08-19T22:56:17.265Z,22.30
2022-08-19T22:58:46.183Z,22.30
2022-08-19T23:01:27.497Z,22.40
2022-08-19T23:04:03.900Z,22.40
2022-08-19T23:06:34.107Z,22.30
2022-08-19T23:09:04.600Z,22.30
2022-08-19T23:11:38.066Z,22.30
2022-08-19T23:14:10.472Z,22.30
2022-08-19T23:16:38.527Z,22.20
2022-08-19T23:19:09.052Z,22.20
2022-08-19T23:21:37.273Z,22.20
2022-08-19T23:24:06.578Z,22.20
2022-08-19T23:26:36.117Z,22.10
2022-08-19T23:29:23.157Z,22.10
2022-08-19T23:31:51.254Z,22.10
2022-08-19T23:34:21.027Z,22.10
2022-08-19T23:36:50.819Z,22.10
2022-08-19T23:39:19.160Z,22.00
2022-08-19T23:41:47.131Z,22.00
2022-08-19T23:44:15.476Z,21.90
2022-08-19T23:46:54.540Z,21.90
2022-08-19T23:49:25.938Z,21.90
2022-08-19T23:51:55.461Z,21.80
